TimeEDT,TemperatureF,Dew PointF,Humidity,Sea Level PressureIn,VisibilityMPH,Wind Direction,Wind SpeedMPH,Gust SpeedMPH,PrecipitationIn,Events,Conditions,WindDirDegrees,DateUTC
12:53 AM,57.0,51.1,81,30.13,10.0,ESE,6.9,-,N/A,,Clear,110,2013-03-11 04:53:00
1:53 AM,57.9,53.1,84,30.12,10.0,SE,5.8,-,N/A,,Clear,140,2013-03-11 05:53:00
2:53 AM,55.9,52.0,87,30.11,10.0,SE,4.6,-,N/A,,Clear,140,2013-03-11 06:53:00
3:53 AM,54.0,51.1,90,30.08,10.0,East,4.6,-,N/A,,Clear,100,2013-03-11 07:53:00
4:53 AM,55.0,52.0,89,30.05,10.0,Calm,Calm,-,N/A,,Clear,0,2013-03-11 08:53:00
5:53 AM,54.0,51.1,90,30.05,10.0,Calm,Calm,-,N/A,,Clear,0,2013-03-11 09:53:00
6:53 AM,54.0,51.1,90,30.05,10.0,Variable,3.5,-,N/A,,Clear,0,2013-03-11 10:53:00
7:53 AM,55.9,53.1,90,30.06,10.0,SE,6.9,-,N/A,,Clear,140,2013-03-11 11:53:00
8:53 AM,60.1,55.0,83,30.05,10.0,ESE,6.9,-,N/A,,Clear,120,2013-03-11 12:53:00
9:53 AM,66.0,54.0,65,30.07,10.0,SE,8.1,-,N/A,,Clear,140,2013-03-11 13:53:00
10:53 AM,69.1,55.0,61,30.07,10.0,SSE,13.8,23.0,N/A,,Clear,160,2013-03-11 14:53:00
11:53 AM,72.0,54.0,53,30.07,10.0,SSE,13.8,19.6,N/A,,Mostly Cloudy,160,2013-03-11 15:53:00
12:53 PM,73.9,53.1,48,30.06,10.0,SSE,11.5,-,N/A,,Mostly Cloudy,150,2013-03-11 16:53:00
1:53 PM,75.0,53.1,46,30.03,10.0,SSW,10.4,-,N/A,,Mostly Cloudy,210,2013-03-11 17:53:00
2:53 PM,75.9,53.1,45,29.99,10.0,SSW,8.1,18.4,N/A,,Mostly Cloudy,210,2013-03-11 18:53:00
3:53 PM,77.0,52.0,42,29.95,10.0,SSW,8.1,16.1,N/A,,Partly Cloudy,200,2013-03-11 19:53:00
4:53 PM,75.9,53.1,45,29.94,10.0,SSW,8.1,-,N/A,,Mostly Cloudy,200,2013-03-11 20:53:00
5:53 PM,75.0,54.0,48,29.93,10.0,SSW,11.5,-,N/A,,Clear,210,2013-03-11 21:53:00
6:53 PM,72.0,53.1,51,29.93,10.0,SSW,6.9,-,N/A,,Clear,200,2013-03-11 22:53:00
7:53 PM,69.1,53.1,57,29.91,10.0,South,3.5,-,N/A,,Clear,170,2013-03-11 23:53:00
8:53 PM,66.0,54.0,65,29.92,10.0,Calm,Calm,-,N/A,,Clear,0,2013-03-12 00:53:00
9:53 PM,66.0,55.0,68,29.95,10.0,WSW,3.5,-,N/A,,Clear,240,2013-03-12 01:53:00
10:53 PM,64.9,55.0,70,29.95,10.0,Calm,Calm,-,N/A,,Partly Cloudy,0,2013-03-12 02:53:00
11:53 PM,64.9,57.0,75,29.93,10.0,SE,5.8,-,0.00,,Mostly Cloudy,140,2013-03-12 03:53:00